sensor_id;sensor_type;location;lat;lon;timestamp;pressure;altitude;pressure_sealevel;temperature;humidity
79686;BME280;69153;47.918;11.428;2024-01-06T00:00:25;93898.59;;;7.86;65.94
79686;BME280;69153;47.918;11.428;2024-01-06T00:02:50;93889.50;;;7.87;65.85
79686;BME280;69153;47.918;11.428;2024-01-06T00:05:16;93895.22;;;7.86;65.85
79686;BME280;69153;47.918;11.428;2024-01-06T00:07:41;93881.91;;;7.89;65.80
79686;BME280;69153;47.918;11.428;2024-01-06T00:10:07;93883.81;;;7.89;66.19
79686;BME280;69153;47.918;11.428;2024-01-06T00:12:33;93880.19;;;7.96;65.65
79686;BME280;69153;47.918;11.428;2024-01-06T00:14:59;93876.94;;;7.92;66.16
79686;BME280;69153;47.918;11.428;2024-01-06T00:17:24;93877.50;;;7.86;65.97
79686;BME280;69153;47.918;11.428;2024-01-06T00:19:50;93878.53;;;7.89;66.23
79686;BME280;69153;47.918;11.428;2024-01-06T00:22:20;93881.19;;;7.89;66.27
79686;BME280;69153;47.918;11.428;2024-01-06T00:24:45;93874.75;;;7.90;66.26
79686;BME280;69153;47.918;11.428;2024-01-06T00:27:11;93873.56;;;7.91;66.50
79686;BME280;69153;47.918;11.428;2024-01-06T00:29:37;93873.13;;;7.93;66.12
79686;BME280;69153;47.918;11.428;2024-01-06T00:32:02;93873.69;;;7.87;66.24
79686;BME280;69153;47.918;11.428;2024-01-06T00:34:28;93873.50;;;7.82;66.41
79686;BME280;69153;47.918;11.428;2024-01-06T00:36:53;93871.28;;;7.80;66.76
79686;BME280;69153;47.918;11.428;2024-01-06T00:39:19;93864.00;;;7.84;66.47
79686;BME280;69153;47.918;11.428;2024-01-06T00:41:45;93871.91;;;7.84;66.56
79686;BME280;69153;47.918;11.428;2024-01-06T00:44:11;93867.69;;;7.87;66.22
79686;BME280;69153;47.918;11.428;2024-01-06T00:46:36;93861.66;;;7.86;66.35
79686;BME280;69153;47.918;11.428;2024-01-06T00:49:01;93865.34;;;7.89;66.32
79686;BME280;69153;47.918;11.428;2024-01-06T00:51:27;93855.66;;;7.86;66.41
79686;BME280;69153;47.918;11.428;2024-01-06T00:53:53;93865.47;;;7.85;66.69
79686;BME280;69153;47.918;11.428;2024-01-06T00:56:18;93869.09;;;7.79;66.62
79686;BME280;69153;47.918;11.428;2024-01-06T00:58:44;93871.63;;;7.61;66.94
79686;BME280;69153;47.918;11.428;2024-01-06T01:01:09;93866.56;;;7.53;67.31
79686;BME280;69153;47.918;11.428;2024-01-06T01:03:35;93868.25;;;7.60;67.35
79686;BME280;69153;47.918;11.428;2024-01-06T01:06:00;93875.16;;;7.67;67.06
79686;BME280;69153;47.918;11.428;2024-01-06T01:08:26;93867.00;;;7.74;66.87
79686;BME280;69153;47.918;11.428;2024-01-06T01:10:51;93862.78;;;7.76;66.49
79686;BME280;69153;47.918;11.428;2024-01-06T01:13:17;93866.91;;;7.77;66.71
79686;BME280;69153;47.918;11.428;2024-01-06T01:15:42;93872.03;;;7.81;66.58
79686;BME280;69153;47.918;11.428;2024-01-06T01:18:07;93871.19;;;7.84;65.99
79686;BME280;69153;47.918;11.428;2024-01-06T01:20:33;93885.53;;;7.83;65.95
79686;BME280;69153;47.918;11.428;2024-01-06T01:22:58;93875.41;;;7.81;66.05
79686;BME280;69153;47.918;11.428;2024-01-06T01:25:24;93884.06;;;7.82;66.23
79686;BME280;69153;47.918;11.428;2024-01-06T01:27:49;93886.56;;;7.85;65.38
79686;BME280;69153;47.918;11.428;2024-01-06T01:30:14;93885.53;;;7.83;66.10
79686;BME280;69153;47.918;11.428;2024-01-06T01:32:40;93884.34;;;7.84;65.84
79686;BME280;69153;47.918;11.428;2024-01-06T01:35:06;93888.59;;;7.81;65.18
79686;BME280;69153;47.918;11.428;2024-01-06T01:37:31;93893.44;;;7.83;65.19
79686;BME280;69153;47.918;11.428;2024-01-06T01:39:57;93892.38;;;7.80;65.36
79686;BME280;69153;47.918;11.428;2024-01-06T01:42:22;93892.84;;;7.79;65.19
79686;BME280;69153;47.918;11.428;2024-01-06T01:44:48;93892.84;;;7.79;64.54
79686;BME280;69153;47.918;11.428;2024-01-06T01:47:13;93895.91;;;7.77;64.84
79686;BME280;69153;47.918;11.428;2024-01-06T01:49:45;93895.47;;;7.79;64.51
79686;BME280;69153;47.918;11.428;2024-01-06T01:52:12;93898.97;;;7.76;64.50
79686;BME280;69153;47.918;11.428;2024-01-06T01:54:39;93909.09;;;7.77;64.09
79686;BME280;69153;47.918;11.428;2024-01-06T01:57:06;93903.06;;;7.77;64.27
79686;BME280;69153;47.918;11.428;2024-01-06T01:59:33;93900.56;;;7.73;64.44
79686;BME280;69153;47.918;11.428;2024-01-06T02:01:59;93907.41;;;7.71;64.17
79686;BME280;69153;47.918;11.428;2024-01-06T02:04:25;93899.94;;;7.69;64.12
79686;BME280;69153;47.918;11.428;2024-01-06T02:06:51;93894.22;;;7.71;63.83
79686;BME280;69153;47.918;11.428;2024-01-06T02:09:16;93896.75;;;7.74;64.16
79686;BME280;69153;47.918;11.428;2024-01-06T02:11:41;93891.91;;;7.73;64.41
79686;BME280;69153;47.918;11.428;2024-01-06T02:14:07;93891.16;;;7.72;64.40
79686;BME280;69153;47.918;11.428;2024-01-06T02:16:33;93892.63;;;7.73;64.49
79686;BME280;69153;47.918;11.428;2024-01-06T02:18:58;93897.91;;;7.73;64.46
79686;BME280;69153;47.918;11.428;2024-01-06T02:21:24;93899.81;;;7.73;64.59
79686;BME280;69153;47.918;11.428;2024-01-06T02:23:52;93896.44;;;7.72;64.40
79686;BME280;69153;47.918;11.428;2024-01-06T02:26:18;93900.25;;;7.71;64.56
79686;BME280;69153;47.918;11.428;2024-01-06T02:28:43;93907.84;;;7.69;64.39
79686;BME280;69153;47.918;11.428;2024-01-06T02:31:13;93904.59;;;7.65;64.71
79686;BME280;69153;47.918;11.428;2024-01-06T02:33:38;93904.59;;;7.65;64.58
79686;BME280;69153;47.918;11.428;2024-01-06T02:36:04;93903.97;;;7.61;63.92
79686;BME280;69153;47.918;11.428;2024-01-06T02:38:29;93915.69;;;7.60;64.73
79686;BME280;69153;47.918;11.428;2024-01-06T02:40:55;93917.59;;;7.60;63.57
79686;BME280;69153;47.918;11.428;2024-01-06T02:43:20;93913.97;;;7.32;62.39
79686;BME280;69153;47.918;11.428;2024-01-06T02:45:45;93915.44;;;7.33;63.20
79686;BME280;69153;47.918;11.428;2024-01-06T02:48:12;93924.91;;;7.43;63.42
79686;BME280;69153;47.918;11.428;2024-01-06T02:50:37;93921.72;;;7.48;63.61
79686;BME280;69153;47.918;11.428;2024-01-06T02:53:03;93916.78;;;7.50;63.54
79686;BME280;69153;47.918;11.428;2024-01-06T02:55:28;93917.38;;;7.54;63.62
79686;BME280;69153;47.918;11.428;2024-01-06T02:57:54;93914.75;;;7.54;63.58
79686;BME280;69153;47.918;11.428;2024-01-06T03:00:19;93921.19;;;7.53;62.74
79686;BME280;69153;47.918;11.428;2024-01-06T03:02:45;93921.63;;;7.51;60.38
79686;BME280;69153;47.918;11.428;2024-01-06T03:05:10;93925.22;;;7.45;60.93
79686;BME280;69153;47.918;11.428;2024-01-06T03:07:36;93936.91;;;7.44;61.29
79686;BME280;69153;47.918;11.428;2024-01-06T03:10:01;93939.59;;;7.31;62.66
79686;BME280;69153;47.918;11.428;2024-01-06T03:12:27;93943.06;;;7.28;62.90
79686;BME280;69153;47.918;11.428;2024-01-06T03:14:53;93933.25;;;7.29;60.58
79686;BME280;69153;47.918;11.428;2024-01-06T03:17:18;93938.66;;;7.25;61.25
79686;BME280;69153;47.918;11.428;2024-01-06T03:19:44;93942.03;;;7.26;61.13
79686;BME280;69153;47.918;11.428;2024-01-06T03:22:09;93939.59;;;7.31;60.04
79686;BME280;69153;47.918;11.428;2024-01-06T03:24:35;93941.16;;;7.29;60.44
79686;BME280;69153;47.918;11.428;2024-01-06T03:27:00;93940.66;;;7.21;61.62
79686;BME280;69153;47.918;11.428;2024-01-06T03:29:26;93936.56;;;7.20;60.81
79686;BME280;69153;47.918;11.428;2024-01-06T03:31:51;93935.94;;;7.03;60.49
79686;BME280;69153;47.918;11.428;2024-01-06T03:34:17;93933.22;;;6.94;60.72
79686;BME280;69153;47.918;11.428;2024-01-06T03:36:42;93933.13;;;6.98;60.10
79686;BME280;69153;47.918;11.428;2024-01-06T03:39:07;93942.59;;;7.08;60.02
79686;BME280;69153;47.918;11.428;2024-01-06T03:41:33;93940.47;;;7.03;60.07
79686;BME280;69153;47.918;11.428;2024-01-06T03:43:59;93942.06;;;7.00;60.84
79686;BME280;69153;47.918;11.428;2024-01-06T03:46:25;93944.78;;;7.09;60.44
79686;BME280;69153;47.918;11.428;2024-01-06T03:48:50;93952.06;;;7.05;60.34
79686;BME280;69153;47.918;11.428;2024-01-06T03:51:16;93951.00;;;7.03;60.51
79686;BME280;69153;47.918;11.428;2024-01-06T03:53:41;93951.63;;;7.07;60.91
79686;BME280;69153;47.918;11.428;2024-01-06T03:56:07;93955.84;;;7.04;61.11
79686;BME280;69153;47.918;11.428;2024-01-06T03:58:33;93947.84;;;6.95;61.40
79686;BME280;69153;47.918;11.428;2024-01-06T04:00:58;93957.44;;;6.89;62.30
79686;BME280;69153;47.918;11.428;2024-01-06T04:03:24;93956.50;;;6.96;61.13
79686;BME280;69153;47.918;11.428;2024-01-06T04:05:49;93959.66;;;6.91;61.00
79686;BME280;69153;47.918;11.428;2024-01-06T04:08:15;93967.03;;;6.83;61.77
79686;BME280;69153;47.918;11.428;2024-01-06T04:10:40;93972.31;;;6.83;61.74
79686;BME280;69153;47.918;11.428;2024-01-06T04:13:07;93976.50;;;6.80;61.93
79686;BME280;69153;47.918;11.428;2024-01-06T04:15:33;93974.72;;;6.77;61.75
79686;BME280;69153;47.918;11.428;2024-01-06T04:18:02;93975.78;;;6.80;61.83
79686;BME280;69153;47.918;11.428;2024-01-06T04:20:29;93969.34;;;6.81;61.83
79686;BME280;69153;47.918;11.428;2024-01-06T04:22:54;93975.34;;;6.81;61.61
79686;BME280;69153;47.918;11.428;2024-01-06T04:25:20;93976.09;;;6.82;61.47
79686;BME280;69153;47.918;11.428;2024-01-06T04:27:46;93974.59;;;6.81;61.47
79686;BME280;69153;47.918;11.428;2024-01-06T04:30:13;93968.59;;;6.80;61.19
79686;BME280;69153;47.918;11.428;2024-01-06T04:32:38;93979.97;;;6.77;61.18
79686;BME280;69153;47.918;11.428;2024-01-06T04:35:04;93980.72;;;6.78;61.26
79686;BME280;69153;47.918;11.428;2024-01-06T04:37:30;93973.22;;;6.76;61.24
79686;BME280;69153;47.918;11.428;2024-01-06T04:39:55;93985.25;;;6.77;61.17
79686;BME280;69153;47.918;11.428;2024-01-06T04:42:21;93993.56;;;6.76;60.70
79686;BME280;69153;47.918;11.428;2024-01-06T04:44:48;93991.47;;;6.71;60.61
79686;BME280;69153;47.918;11.428;2024-01-06T04:47:13;93999.44;;;6.67;60.92
79686;BME280;69153;47.918;11.428;2024-01-06T04:49:38;94001.66;;;6.56;61.26
79686;BME280;69153;47.918;11.428;2024-01-06T04:52:04;94000.59;;;6.54;60.83
79686;BME280;69153;47.918;11.428;2024-01-06T04:54:30;94011.19;;;6.50;60.63
79686;BME280;69153;47.918;11.428;2024-01-06T04:56:55;94013.53;;;6.48;61.13
79686;BME280;69153;47.918;11.428;2024-01-06T04:59:21;94011.53;;;6.52;60.71
79686;BME280;69153;47.918;11.428;2024-01-06T05:01:47;94010.69;;;6.55;61.06
79686;BME280;69153;47.918;11.428;2024-01-06T05:04:12;94019.00;;;6.54;61.16
79686;BME280;69153;47.918;11.428;2024-01-06T05:06:37;94013.41;;;6.52;61.37
79686;BME280;69153;47.918;11.428;2024-01-06T05:09:03;94019.41;;;6.52;61.62
79686;BME280;69153;47.918;11.428;2024-01-06T05:11:29;94016.59;;;6.47;60.77
79686;BME280;69153;47.918;11.428;2024-01-06T05:13:54;94012.53;;;6.29;60.23
79686;BME280;69153;47.918;11.428;2024-01-06T05:16:20;94010.63;;;6.30;60.57
79686;BME280;69153;47.918;11.428;2024-01-06T05:18:45;94007.19;;;6.33;60.30
79686;BME280;69153;47.918;11.428;2024-01-06T05:21:10;94014.44;;;6.29;60.59
79686;BME280;69153;47.918;11.428;2024-01-06T05:23:36;94021.16;;;6.30;61.35
79686;BME280;69153;47.918;11.428;2024-01-06T05:26:01;94018.84;;;6.32;60.67
79686;BME280;69153;47.918;11.428;2024-01-06T05:28:27;94023.88;;;6.26;61.35
79686;BME280;69153;47.918;11.428;2024-01-06T05:30:52;94030.69;;;6.24;61.63
79686;BME280;69153;47.918;11.428;2024-01-06T05:33:18;94032.78;;;6.16;61.73
79686;BME280;69153;47.918;11.428;2024-01-06T05:35:43;94036.38;;;5.93;62.57
79686;BME280;69153;47.918;11.428;2024-01-06T05:38:09;94047.63;;;5.94;62.80
79686;BME280;69153;47.918;11.428;2024-01-06T05:40:35;94044.50;;;5.83;63.22
79686;BME280;69153;47.918;11.428;2024-01-06T05:43:00;94052.16;;;5.77;63.38
79686;BME280;69153;47.918;11.428;2024-01-06T05:45:26;94056.50;;;5.67;63.69
79686;BME280;69153;47.918;11.428;2024-01-06T05:47:51;94062.19;;;5.66;64.13
79686;BME280;69153;47.918;11.428;2024-01-06T05:50:17;94067.59;;;5.75;63.85
79686;BME280;69153;47.918;11.428;2024-01-06T05:52:43;94066.94;;;5.71;63.96
79686;BME280;69153;47.918;11.428;2024-01-06T05:55:09;94069.25;;;5.53;64.58
79686;BME280;69153;47.918;11.428;2024-01-06T05:57:35;94070.38;;;5.52;64.75
79686;BME280;69153;47.918;11.428;2024-01-06T06:00:00;94075.66;;;5.52;64.87
79686;BME280;69153;47.918;11.428;2024-01-06T06:02:26;94070.41;;;5.68;64.75
79686;BME280;69153;47.918;11.428;2024-01-06T06:04:52;94080.56;;;5.82;64.44
79686;BME280;69153;47.918;11.428;2024-01-06T06:07:18;94086.97;;;5.81;64.09
79686;BME280;69153;47.918;11.428;2024-01-06T06:09:44;94083.19;;;5.66;64.67
79686;BME280;69153;47.918;11.428;2024-01-06T06:12:13;94091.97;;;5.59;65.21
79686;BME280;69153;47.918;11.428;2024-01-06T06:14:39;94096.84;;;5.45;65.27
79686;BME280;69153;47.918;11.428;2024-01-06T06:17:04;94101.97;;;5.48;65.41
79686;BME280;69153;47.918;11.428;2024-01-06T06:19:30;94091.41;;;5.68;64.92
79686;BME280;69153;47.918;11.428;2024-01-06T06:21:56;94097.50;;;5.81;64.43
79686;BME280;69153;47.918;11.428;2024-01-06T06:24:21;94103.47;;;5.82;63.93
79686;BME280;69153;47.918;11.428;2024-01-06T06:26:47;94101.41;;;5.73;64.31
79686;BME280;69153;47.918;11.428;2024-01-06T06:29:12;94101.25;;;5.64;64.79
79686;BME280;69153;47.918;11.428;2024-01-06T06:31:38;94106.09;;;5.65;65.00
79686;BME280;69153;47.918;11.428;2024-01-06T06:34:03;94108.38;;;5.31;66.05
79686;BME280;69153;47.918;11.428;2024-01-06T06:36:28;94104.72;;;5.45;66.15
79686;BME280;69153;47.918;11.428;2024-01-06T06:38:54;94110.06;;;5.57;65.66
79686;BME280;69153;47.918;11.428;2024-01-06T06:41:19;94112.97;;;5.27;66.12
79686;BME280;69153;47.918;11.428;2024-01-06T06:43:45;94115.50;;;5.14;66.37
79686;BME280;69153;47.918;11.428;2024-01-06T06:46:10;94120.41;;;5.12;67.18
79686;BME280;69153;47.918;11.428;2024-01-06T06:48:36;94132.09;;;4.91;67.90
79686;BME280;69153;47.918;11.428;2024-01-06T06:51:01;94130.56;;;5.10;67.50
79686;BME280;69153;47.918;11.428;2024-01-06T06:53:27;94125.03;;;5.24;67.18
79686;BME280;69153;47.918;11.428;2024-01-06T06:55:53;94129.59;;;5.56;65.88
79686;BME280;69153;47.918;11.428;2024-01-06T06:58:18;94129.81;;;5.46;65.66
79686;BME280;69153;47.918;11.428;2024-01-06T07:00:44;94130.97;;;5.61;65.59
79686;BME280;69153;47.918;11.428;2024-01-06T07:03:09;94132.78;;;5.64;65.17
79686;BME280;69153;47.918;11.428;2024-01-06T07:05:35;94131.06;;;5.57;65.37
79686;BME280;69153;47.918;11.428;2024-01-06T07:08:00;94133.34;;;5.71;65.17
79686;BME280;69153;47.918;11.428;2024-01-06T07:10:26;94138.47;;;5.79;65.18
79686;BME280;69153;47.918;11.428;2024-01-06T07:12:52;94142.56;;;5.63;64.89
79686;BME280;69153;47.918;11.428;2024-01-06T07:15:17;94148.53;;;5.48;65.46
79686;BME280;69153;47.918;11.428;2024-01-06T07:17:43;94140.75;;;5.60;65.47
79686;BME280;69153;47.918;11.428;2024-01-06T07:20:08;94147.38;;;5.49;64.83
79686;BME280;69153;47.918;11.428;2024-01-06T07:22:36;94150.09;;;5.61;64.97
79686;BME280;69153;47.918;11.428;2024-01-06T07:25:01;94154.97;;;5.63;64.95
79686;BME280;69153;47.918;11.428;2024-01-06T07:27:27;94155.22;;;5.68;64.68
79686;BME280;69153;47.918;11.428;2024-01-06T07:29:52;94160.94;;;5.63;64.90
79686;BME280;69153;47.918;11.428;2024-01-06T07:32:18;94160.72;;;5.58;65.13
79686;BME280;69153;47.918;11.428;2024-01-06T07:34:43;94159.53;;;5.59;65.13
79686;BME280;69153;47.918;11.428;2024-01-06T07:37:09;94162.91;;;5.59;64.91
79686;BME280;69153;47.918;11.428;2024-01-06T07:39:34;94175.63;;;5.45;65.40
79686;BME280;69153;47.918;11.428;2024-01-06T07:42:00;94178.56;;;5.47;65.29
79686;BME280;69153;47.918;11.428;2024-01-06T07:44:25;94181.47;;;5.52;65.04
79686;BME280;69153;47.918;11.428;2024-01-06T07:46:52;94191.53;;;5.37;65.39
79686;BME280;69153;47.918;11.428;2024-01-06T07:49:17;94189.06;;;5.30;65.89
79686;BME280;69153;47.918;11.428;2024-01-06T07:51:43;94194.31;;;4.91;66.92
79686;BME280;69153;47.918;11.428;2024-01-06T07:54:08;94204.88;;;5.07;67.15
79686;BME280;69153;47.918;11.428;2024-01-06T07:56:35;94199.44;;;4.98;66.86
79686;BME280;69153;47.918;11.428;2024-01-06T07:59:01;94196.13;;;4.94;66.82
79686;BME280;69153;47.918;11.428;2024-01-06T08:01:27;94201.44;;;5.10;66.58
79686;BME280;69153;47.918;11.428;2024-01-06T08:03:53;94199.72;;;5.03;66.11
79686;BME280;69153;47.918;11.428;2024-01-06T08:06:18;94198.97;;;5.03;66.47
79686;BME280;69153;47.918;11.428;2024-01-06T08:08:44;94203.13;;;5.20;65.87
79686;BME280;69153;47.918;11.428;2024-01-06T08:11:11;94202.19;;;5.30;65.36
79686;BME280;69153;47.918;11.428;2024-01-06T08:13:37;94206.59;;;5.33;65.32
79686;BME280;69153;47.918;11.428;2024-01-06T08:16:02;94196.72;;;5.41;65.13
79686;BME280;69153;47.918;11.428;2024-01-06T08:18:28;94201.91;;;5.45;64.48
79686;BME280;69153;47.918;11.428;2024-01-06T08:20:53;94201.69;;;5.55;64.37
79686;BME280;69153;47.918;11.428;2024-01-06T08:23:19;94199.53;;;5.50;64.32
79686;BME280;69153;47.918;11.428;2024-01-06T08:25:46;94204.03;;;5.50;65.02
79686;BME280;69153;47.918;11.428;2024-01-06T08:28:11;94208.50;;;5.33;64.75
79686;BME280;69153;47.918;11.428;2024-01-06T08:30:37;94215.03;;;5.45;64.67
79686;BME280;69153;47.918;11.428;2024-01-06T08:33:02;94209.28;;;5.50;64.19
79686;BME280;69153;47.918;11.428;2024-01-06T08:35:28;94221.78;;;5.06;65.40
79686;BME280;69153;47.918;11.428;2024-01-06T08:37:54;94218.94;;;4.97;66.12
79686;BME280;69153;47.918;11.428;2024-01-06T08:40:19;94219.34;;;4.95;66.03
79686;BME280;69153;47.918;11.428;2024-01-06T08:42:45;94224.63;;;5.15;65.65
79686;BME280;69153;47.918;11.428;2024-01-06T08:45:10;94229.66;;;5.06;65.80
79686;BME280;69153;47.918;11.428;2024-01-06T08:47:37;94225.34;;;4.96;65.77
79686;BME280;69153;47.918;11.428;2024-01-06T08:50:02;94232.34;;;5.02;65.68
79686;BME280;69153;47.918;11.428;2024-01-06T08:52:28;94233.91;;;5.00;65.88
79686;BME280;69153;47.918;11.428;2024-01-06T08:54:54;94230.94;;;5.18;65.46
79686;BME280;69153;47.918;11.428;2024-01-06T08:57:19;94235.22;;;5.08;65.27
79686;BME280;69153;47.918;11.428;2024-01-06T08:59:44;94237.94;;;5.05;65.75
79686;BME280;69153;47.918;11.428;2024-01-06T09:02:10;94234.22;;;5.02;66.03
79686;BME280;69153;47.918;11.428;2024-01-06T09:04:36;94238.13;;;5.14;65.85
79686;BME280;69153;47.918;11.428;2024-01-06T09:07:01;94241.84;;;5.16;65.78
79686;BME280;69153;47.918;11.428;2024-01-06T09:09:27;94236.25;;;5.14;65.41
79686;BME280;69153;47.918;11.428;2024-01-06T09:11:53;94235.31;;;5.24;65.34
79686;BME280;69153;47.918;11.428;2024-01-06T09:14:19;94246.00;;;5.33;64.91
79686;BME280;69153;47.918;11.428;2024-01-06T09:16:44;94243.19;;;5.44;64.62
79686;BME280;69153;47.918;11.428;2024-01-06T09:19:10;94240.75;;;5.53;64.56
79686;BME280;69153;47.918;11.428;2024-01-06T09:21:35;94247.00;;;5.59;64.11
79686;BME280;69153;47.918;11.428;2024-01-06T09:24:01;94242.75;;;5.46;64.61
79686;BME280;69153;47.918;11.428;2024-01-06T09:26:32;94260.00;;;5.47;64.29
79686;BME280;69153;47.918;11.428;2024-01-06T09:28:57;94255.44;;;5.51;64.51
79686;BME280;69153;47.918;11.428;2024-01-06T09:31:23;94261.34;;;5.55;64.48
79686;BME280;69153;47.918;11.428;2024-01-06T09:33:49;94261.16;;;5.46;64.65
79686;BME280;69153;47.918;11.428;2024-01-06T09:36:15;94268.50;;;5.54;64.52
79686;BME280;69153;47.918;11.428;2024-01-06T09:38:40;94256.34;;;5.60;63.88
79686;BME280;69153;47.918;11.428;2024-01-06T09:41:06;94262.28;;;5.64;64.21
79686;BME280;69153;47.918;11.428;2024-01-06T09:43:32;94256.28;;;5.64;63.67
79686;BME280;69153;47.918;11.428;2024-01-06T09:46:06;94253.88;;;5.53;64.18
79686;BME280;69153;47.918;11.428;2024-01-06T09:48:39;94259.38;;;5.59;64.18
79686;BME280;69153;47.918;11.428;2024-01-06T09:51:10;94266.84;;;5.60;64.03
79686;BME280;69153;47.918;11.428;2024-01-06T09:53:43;94262.91;;;5.52;64.39
79686;BME280;69153;47.918;11.428;2024-01-06T09:56:12;94266.69;;;5.51;64.31
79686;BME280;69153;47.918;11.428;2024-01-06T09:58:38;94265.13;;;5.54;64.66
79686;BME280;69153;47.918;11.428;2024-01-06T10:01:06;94261.47;;;5.67;64.07
79686;BME280;69153;47.918;11.428;2024-01-06T10:03:32;94257.06;;;5.81;63.65
79686;BME280;69153;47.918;11.428;2024-01-06T10:06:00;94248.50;;;5.77;63.32
79686;BME280;69153;47.918;11.428;2024-01-06T10:08:29;94246.28;;;5.75;63.41
79686;BME280;69153;47.918;11.428;2024-01-06T10:10:54;94241.56;;;5.50;64.52
79686;BME280;69153;47.918;11.428;2024-01-06T10:13:20;94255.16;;;5.65;64.71
79686;BME280;69153;47.918;11.428;2024-01-06T10:15:45;94256.47;;;5.73;64.38
79686;BME280;69153;47.918;11.428;2024-01-06T10:18:13;94251.78;;;5.64;64.32
79686;BME280;69153;47.918;11.428;2024-01-06T10:20:38;94249.47;;;5.66;64.20
79686;BME280;69153;47.918;11.428;2024-01-06T10:23:05;94249.66;;;5.75;63.74
79686;BME280;69153;47.918;11.428;2024-01-06T10:25:31;94251.31;;;5.69;64.03
79686;BME280;69153;47.918;11.428;2024-01-06T10:28:00;94254.13;;;5.59;63.78
79686;BME280;69153;47.918;11.428;2024-01-06T10:30:26;94251.78;;;5.64;64.12
79686;BME280;69153;47.918;11.428;2024-01-06T10:32:51;94244.41;;;5.75;63.66
79686;BME280;69153;47.918;11.428;2024-01-06T10:35:18;94244.00;;;5.77;63.84
79686;BME280;69153;47.918;11.428;2024-01-06T10:37:44;94246.03;;;5.89;63.52
79686;BME280;69153;47.918;11.428;2024-01-06T10:40:12;94241.09;;;5.91;62.86
79686;BME280;69153;47.918;11.428;2024-01-06T10:42:40;94236.81;;;5.97;63.23
79686;BME280;69153;47.918;11.428;2024-01-06T10:45:07;94234.78;;;6.05;63.06
79686;BME280;69153;47.918;11.428;2024-01-06T10:47:36;94240.38;;;6.07;62.31
79686;BME280;69153;47.918;11.428;2024-01-06T10:50:02;94241.88;;;6.08;62.44
79686;BME280;69153;47.918;11.428;2024-01-06T10:52:28;94236.94;;;6.10;62.57
79686;BME280;69153;47.918;11.428;2024-01-06T10:54:55;94244.31;;;6.15;61.95
79686;BME280;69153;47.918;11.428;2024-01-06T10:57:21;94242.09;;;6.14;62.71
79686;BME280;69153;47.918;11.428;2024-01-06T10:59:52;94235.63;;;6.18;62.82
79686;BME280;69153;47.918;11.428;2024-01-06T11:02:18;94240.13;;;6.18;62.63
79686;BME280;69153;47.918;11.428;2024-01-06T11:04:48;94241.84;;;6.24;62.78
79686;BME280;69153;47.918;11.428;2024-01-06T11:07:17;94233.41;;;6.17;62.87
79686;BME280;69153;47.918;11.428;2024-01-06T11:10:02;94235.28;;;6.16;62.83
79686;BME280;69153;47.918;11.428;2024-01-06T11:12:30;94234.84;;;6.01;62.76
79686;BME280;69153;47.918;11.428;2024-01-06T11:14:56;94232.00;;;5.96;63.05
79686;BME280;69153;47.918;11.428;2024-01-06T11:17:49;94240.69;;;5.93;63.26
79686;BME280;69153;47.918;11.428;2024-01-06T11:20:24;94231.09;;;6.02;63.48
79686;BME280;69153;47.918;11.428;2024-01-06T11:22:50;94236.50;;;6.12;63.21
79686;BME280;69153;47.918;11.428;2024-01-06T11:25:18;94236.03;;;6.17;63.24
79686;BME280;69153;47.918;11.428;2024-01-06T11:27:49;94227.88;;;6.11;62.93
79686;BME280;69153;47.918;11.428;2024-01-06T11:30:26;94232.50;;;6.07;63.46
79686;BME280;69153;47.918;11.428;2024-01-06T11:32:56;94230.84;;;6.13;62.93
79686;BME280;69153;47.918;11.428;2024-01-06T11:35:29;94229.63;;;6.18;62.54
79686;BME280;69153;47.918;11.428;2024-01-06T11:37:57;94218.84;;;6.28;62.16
79686;BME280;69153;47.918;11.428;2024-01-06T11:40:24;94216.53;;;6.30;62.62
79686;BME280;69153;47.918;11.428;2024-01-06T11:43:04;94207.00;;;6.36;62.00
79686;BME280;69153;47.918;11.428;2024-01-06T11:45:31;94211.53;;;6.36;62.70
79686;BME280;69153;47.918;11.428;2024-01-06T11:47:59;94208.66;;;6.47;62.75
79686;BME280;69153;47.918;11.428;2024-01-06T11:50:26;94206.75;;;6.47;62.69
79686;BME280;69153;47.918;11.428;2024-01-06T11:52:55;94202.47;;;6.53;62.48
79686;BME280;69153;47.918;11.428;2024-01-06T11:55:21;94197.13;;;6.57;62.71
79686;BME280;69153;47.918;11.428;2024-01-06T11:57:47;94199.00;;;6.56;61.58
79686;BME280;69153;47.918;11.428;2024-01-06T12:00:14;94187.31;;;6.57;61.60
79686;BME280;69153;47.918;11.428;2024-01-06T12:02:40;94191.84;;;6.57;61.56
79686;BME280;69153;47.918;11.428;2024-01-06T12:05:12;94191.44;;;6.58;61.84
79686;BME280;69153;47.918;11.428;2024-01-06T12:07:40;94186.41;;;6.64;61.80
79686;BME280;69153;47.918;11.428;2024-01-06T12:10:06;94188.72;;;6.62;61.67
79686;BME280;69153;47.918;11.428;2024-01-06T12:12:33;94191.53;;;6.55;62.09
79686;BME280;69153;47.918;11.428;2024-01-06T12:14:58;94188.16;;;6.54;62.47
79686;BME280;69153;47.918;11.428;2024-01-06T12:17:29;94187.66;;;6.59;61.93
79686;BME280;69153;47.918;11.428;2024-01-06T12:19:54;94185.97;;;6.65;62.36
79686;BME280;69153;47.918;11.428;2024-01-06T12:22:20;94187.25;;;6.61;61.47
79686;BME280;69153;47.918;11.428;2024-01-06T12:24:49;94193.66;;;6.60;61.64
79686;BME280;69153;47.918;11.428;2024-01-06T12:27:17;94187.41;;;6.54;62.06
79686;BME280;69153;47.918;11.428;2024-01-06T12:29:43;94193.34;;;6.41;61.56
79686;BME280;69153;47.918;11.428;2024-01-06T12:32:10;94185.53;;;6.38;61.57
79686;BME280;69153;47.918;11.428;2024-01-06T12:34:35;94182.09;;;6.41;60.82
79686;BME280;69153;47.918;11.428;2024-01-06T12:37:02;94179.97;;;6.36;61.33
79686;BME280;69153;47.918;11.428;2024-01-06T12:39:28;94187.13;;;6.35;61.09
79686;BME280;69153;47.918;11.428;2024-01-06T12:41:55;94188.94;;;6.22;61.35
79686;BME280;69153;47.918;11.428;2024-01-06T12:44:22;94188.69;;;6.17;61.67
79686;BME280;69153;47.918;11.428;2024-01-06T12:46:48;94186.72;;;6.04;61.40
79686;BME280;69153;47.918;11.428;2024-01-06T12:49:14;94183.75;;;6.02;62.10
79686;BME280;69153;47.918;11.428;2024-01-06T12:51:40;94194.94;;;6.06;62.33
79686;BME280;69153;47.918;11.428;2024-01-06T12:54:05;94193.22;;;6.16;61.73